This is the latest recevied weather packets stored in our database for station/object KI5NXU. If no packets are shown the sender has not sent any weather packets the latest 1 day(s).
| Time | Temp. | Humidity | Pressure | Rain* | Wind** | Luminosity | Snow |
|---|---|---|---|---|---|---|---|
| 1778025231 | 22.78° C | 61% | 1005.6 hPa | 0 mm | 2.68 m/s, 35° | 93 W/m² | - |
| 1778024928 | 22.78° C | 62% | 1005.6 hPa | 0 mm | 0.45 m/s, 42° | 103 W/m² | - |
| 1778024626 | 22.78° C | 62% | 1005.9 hPa | 0 mm | 0 m/s | 92 W/m² | - |
| 1778024322 | 22.78° C | 62% | 1005.7 hPa | 0 mm | 0.45 m/s, 19° | 80 W/m² | - |
| 1778024020 | 23.33° C | 61% | 1005.9 hPa | 0 mm | 0 m/s | 102 W/m² | - |
| 1778023717 | 23.33° C | 60% | 1005.8 hPa | 0 mm | 3.13 m/s, 351° | 136 W/m² | - |
| 1778023415 | 23.33° C | 61% | 1005.8 hPa | 0 mm | 1.34 m/s, 13° | 81 W/m² | - |
| 1778023111 | 23.33° C | 63% | 1005.6 hPa | 0 mm | 0.45 m/s, 42° | 80 W/m² | - |
| 1778022809 | 23.33° C | 62% | 1005.8 hPa | 0 mm | 0 m/s | 93 W/m² | - |
| 1778022507 | 23.33° C | 62% | 1005.8 hPa | 0 mm | 1.79 m/s, 45° | 89 W/m² | - |
| 1778022204 | 23.89° C | 61% | 1005.4 hPa | 0 mm | 0.89 m/s, 335° | 103 W/m² | - |
| 1778021901 | 24.44° C | 62% | 1005.2 hPa | 0 mm | 0 m/s | 118 W/m² | - |
| 1778021599 | 24.44° C | 62% | 1005.1 hPa | 0 mm | 0 m/s | 263 W/m² | - |
| 1778021299 | 24.44° C | 63% | 1004.9 hPa | 0 mm | 1.34 m/s, 359° | 138 W/m² | - |
| 1778020997 | 25.56° C | 58% | 1005.1 hPa | 0 mm | 0.45 m/s, 35° | 177 W/m² | - |
| 1778020694 | 25.56° C | 59% | 1004.9 hPa | 0 mm | 1.79 m/s, 62° | 453 W/m² | - |
| 1778020391 | 25.56° C | 60% | 1004.8 hPa | 0 mm | 2.24 m/s, 69° | 227 W/m² | - |
| 1778020086 | 25° C | 60% | 1004.9 hPa | 0 mm | 1.34 m/s, 29° | 354 W/m² | - |
| 1778019783 | 25.56° C | 62% | 1004.9 hPa | 0 mm | 2.24 m/s, 338° | 145 W/m² | - |
| 1778019480 | 25° C | 60% | 1004.9 hPa | 0 mm | 2.24 m/s, 11° | 140 W/m² | - |
| 1778019177 | 25° C | 61% | 1004.5 hPa | 0 mm | 2.24 m/s, 2° | 91 W/m² | - |
| 1778018874 | 25.56° C | 60% | 1004.9 hPa | 0 mm | 2.68 m/s, 9° | 77 W/m² | - |
| 1778018571 | 25.56° C | 60% | 1004.9 hPa | 0 mm | 3.13 m/s, 319° | 107 W/m² | - |
| 1778018269 | 25.56° C | 60% | 1004.9 hPa | 0 mm | 3.58 m/s, 308° | 140 W/m² | - |
| 1778017966 | 25.56° C | 59% | 1004.9 hPa | 0 mm | 3.13 m/s, 16° | 121 W/m² | - |
* Rain latest hour (hover to see other rain measurements)
** Current wind speed in m/s (hover to see current wind gust speed)